sensor_id;sensor_type;location;lat;lon;timestamp;P1;durP1;ratioP1;P2;durP2;ratioP2
20619;SDS011;10469;42.720;23.252;2023-04-25T00:00:19;4.65;;;2.80;;
20619;SDS011;10469;42.720;23.252;2023-04-25T00:02:45;0.40;;;0.40;;
20619;SDS011;10469;42.720;23.252;2023-04-25T00:05:11;0.60;;;0.60;;
20619;SDS011;10469;42.720;23.252;2023-04-25T00:07:37;0.70;;;0.70;;
20619;SDS011;10469;42.720;23.252;2023-04-25T00:10:03;0.52;;;0.52;;
20619;SDS011;10469;42.720;23.252;2023-04-25T00:12:30;0.45;;;0.45;;
20619;SDS011;10469;42.720;23.252;2023-04-25T00:14:55;0.43;;;0.43;;
20619;SDS011;10469;42.720;23.252;2023-04-25T00:17:25;0.68;;;0.68;;
20619;SDS011;10469;42.720;23.252;2023-04-25T00:19:51;0.55;;;0.55;;
20619;SDS011;10469;42.720;23.252;2023-04-25T00:22:17;1.05;;;1.05;;
20619;SDS011;10469;42.720;23.252;2023-04-25T00:24:43;0.50;;;0.50;;
20619;SDS011;10469;42.720;23.252;2023-04-25T00:27:08;0.50;;;0.50;;
20619;SDS011;10469;42.720;23.252;2023-04-25T00:29:34;0.43;;;0.43;;
20619;SDS011;10469;42.720;23.252;2023-04-25T00:31:59;1.02;;;1.00;;
20619;SDS011;10469;42.720;23.252;2023-04-25T00:34:25;0.60;;;0.60;;
20619;SDS011;10469;42.720;23.252;2023-04-25T00:36:51;0.50;;;0.50;;
20619;SDS011;10469;42.720;23.252;2023-04-25T00:39:16;0.50;;;0.50;;
20619;SDS011;10469;42.720;23.252;2023-04-25T00:41:42;0.40;;;0.40;;
20619;SDS011;10469;42.720;23.252;2023-04-25T00:44:08;0.65;;;0.65;;
20619;SDS011;10469;42.720;23.252;2023-04-25T00:46:36;0.40;;;0.40;;
20619;SDS011;10469;42.720;23.252;2023-04-25T00:49:02;0.60;;;0.60;;
20619;SDS011;10469;42.720;23.252;2023-04-25T00:51:27;0.70;;;0.70;;
20619;SDS011;10469;42.720;23.252;2023-04-25T00:53:53;0.40;;;0.40;;
20619;SDS011;10469;42.720;23.252;2023-04-25T00:56:19;0.40;;;0.40;;
20619;SDS011;10469;42.720;23.252;2023-04-25T00:58:46;0.50;;;0.50;;
20619;SDS011;10469;42.720;23.252;2023-04-25T01:01:13;0.40;;;0.40;;
20619;SDS011;10469;42.720;23.252;2023-04-25T01:03:39;0.40;;;0.40;;
20619;SDS011;10469;42.720;23.252;2023-04-25T01:06:10;0.47;;;0.47;;
20619;SDS011;10469;42.720;23.252;2023-04-25T01:08:37;0.38;;;0.38;;
20619;SDS011;10469;42.720;23.252;2023-04-25T01:11:04;0.30;;;0.30;;
20619;SDS011;10469;42.720;23.252;2023-04-25T01:13:30;0.50;;;0.50;;
20619;SDS011;10469;42.720;23.252;2023-04-25T01:15:57;0.50;;;0.50;;
20619;SDS011;10469;42.720;23.252;2023-04-25T01:18:23;0.70;;;0.70;;
20619;SDS011;10469;42.720;23.252;2023-04-25T01:20:50;0.93;;;0.85;;
20619;SDS011;10469;42.720;23.252;2023-04-25T01:23:16;0.40;;;0.40;;
20619;SDS011;10469;42.720;23.252;2023-04-25T01:25:43;0.40;;;0.40;;
20619;SDS011;10469;42.720;23.252;2023-04-25T01:28:10;0.43;;;0.43;;
20619;SDS011;10469;42.720;23.252;2023-04-25T01:30:35;0.50;;;0.50;;
20619;SDS011;10469;42.720;23.252;2023-04-25T01:33:01;0.98;;;0.98;;
20619;SDS011;10469;42.720;23.252;2023-04-25T01:35:29;0.60;;;0.60;;
20619;SDS011;10469;42.720;23.252;2023-04-25T01:37:55;0.57;;;0.57;;
20619;SDS011;10469;42.720;23.252;2023-04-25T01:40:20;0.40;;;0.40;;
20619;SDS011;10469;42.720;23.252;2023-04-25T01:42:47;0.50;;;0.50;;
20619;SDS011;10469;42.720;23.252;2023-04-25T01:45:13;0.73;;;0.73;;
20619;SDS011;10469;42.720;23.252;2023-04-25T01:47:39;3.40;;;1.67;;
20619;SDS011;10469;42.720;23.252;2023-04-25T01:50:05;1.77;;;1.63;;
20619;SDS011;10469;42.720;23.252;2023-04-25T01:52:32;0.80;;;0.80;;
20619;SDS011;10469;42.720;23.252;2023-04-25T01:55:00;0.75;;;0.75;;
20619;SDS011;10469;42.720;23.252;2023-04-25T01:57:27;1.23;;;0.80;;
20619;SDS011;10469;42.720;23.252;2023-04-25T01:59:54;0.60;;;0.60;;
20619;SDS011;10469;42.720;23.252;2023-04-25T02:02:29;0.90;;;0.90;;
20619;SDS011;10469;42.720;23.252;2023-04-25T02:04:54;1.50;;;1.35;;
20619;SDS011;10469;42.720;23.252;2023-04-25T02:07:21;0.60;;;0.60;;
20619;SDS011;10469;42.720;23.252;2023-04-25T02:09:47;0.80;;;0.80;;
20619;SDS011;10469;42.720;23.252;2023-04-25T02:12:13;0.80;;;0.80;;
20619;SDS011;10469;42.720;23.252;2023-04-25T02:14:38;0.85;;;0.85;;
20619;SDS011;10469;42.720;23.252;2023-04-25T02:17:04;0.95;;;0.95;;
20619;SDS011;10469;42.720;23.252;2023-04-25T02:19:30;0.90;;;0.73;;
20619;SDS011;10469;42.720;23.252;2023-04-25T02:21:56;0.98;;;0.85;;
20619;SDS011;10469;42.720;23.252;2023-04-25T02:24:22;1.23;;;1.15;;
20619;SDS011;10469;42.720;23.252;2023-04-25T02:26:48;0.82;;;0.82;;
20619;SDS011;10469;42.720;23.252;2023-04-25T02:29:14;0.73;;;0.73;;
20619;SDS011;10469;42.720;23.252;2023-04-25T02:31:40;1.88;;;1.77;;
20619;SDS011;10469;42.720;23.252;2023-04-25T02:34:06;3.08;;;2.50;;
20619;SDS011;10469;42.720;23.252;2023-04-25T02:36:31;2.75;;;2.55;;
20619;SDS011;10469;42.720;23.252;2023-04-25T02:38:59;2.15;;;1.98;;
20619;SDS011;10469;42.720;23.252;2023-04-25T02:41:25;1.83;;;1.73;;
20619;SDS011;10469;42.720;23.252;2023-04-25T02:43:51;1.63;;;1.52;;
20619;SDS011;10469;42.720;23.252;2023-04-25T02:46:16;1.80;;;1.70;;
20619;SDS011;10469;42.720;23.252;2023-04-25T02:48:42;1.05;;;1.05;;
20619;SDS011;10469;42.720;23.252;2023-04-25T02:51:08;1.23;;;1.23;;
20619;SDS011;10469;42.720;23.252;2023-04-25T02:53:34;3.22;;;2.00;;
20619;SDS011;10469;42.720;23.252;2023-04-25T02:55:59;0.98;;;0.98;;
20619;SDS011;10469;42.720;23.252;2023-04-25T02:58:25;2.25;;;2.05;;
20619;SDS011;10469;42.720;23.252;2023-04-25T03:00:50;3.20;;;1.65;;
20619;SDS011;10469;42.720;23.252;2023-04-25T03:03:15;1.50;;;1.48;;
20619;SDS011;10469;42.720;23.252;2023-04-25T03:05:43;4.80;;;2.08;;
20619;SDS011;10469;42.720;23.252;2023-04-25T03:08:09;1.02;;;1.02;;
20619;SDS011;10469;42.720;23.252;2023-04-25T03:10:34;1.58;;;1.25;;
20619;SDS011;10469;42.720;23.252;2023-04-25T03:13:00;0.70;;;0.70;;
20619;SDS011;10469;42.720;23.252;2023-04-25T03:15:25;0.90;;;0.90;;
20619;SDS011;10469;42.720;23.252;2023-04-25T03:17:51;1.17;;;1.17;;
20619;SDS011;10469;42.720;23.252;2023-04-25T03:20:17;1.58;;;1.52;;
20619;SDS011;10469;42.720;23.252;2023-04-25T03:22:42;1.98;;;1.80;;
20619;SDS011;10469;42.720;23.252;2023-04-25T03:25:08;3.22;;;2.50;;
20619;SDS011;10469;42.720;23.252;2023-04-25T03:27:33;0.98;;;0.98;;
20619;SDS011;10469;42.720;23.252;2023-04-25T03:29:59;1.38;;;1.25;;
20619;SDS011;10469;42.720;23.252;2023-04-25T03:32:24;1.13;;;1.00;;
20619;SDS011;10469;42.720;23.252;2023-04-25T03:34:50;1.25;;;1.15;;
20619;SDS011;10469;42.720;23.252;2023-04-25T03:37:15;1.02;;;1.02;;
20619;SDS011;10469;42.720;23.252;2023-04-25T03:39:41;3.50;;;2.38;;
20619;SDS011;10469;42.720;23.252;2023-04-25T03:42:06;0.80;;;0.80;;
20619;SDS011;10469;42.720;23.252;2023-04-25T03:44:32;1.17;;;1.17;;
20619;SDS011;10469;42.720;23.252;2023-04-25T03:46:57;1.35;;;1.25;;
20619;SDS011;10469;42.720;23.252;2023-04-25T03:49:24;0.80;;;0.80;;
20619;SDS011;10469;42.720;23.252;2023-04-25T03:51:50;1.55;;;1.45;;
20619;SDS011;10469;42.720;23.252;2023-04-25T03:54:15;1.40;;;1.30;;
20619;SDS011;10469;42.720;23.252;2023-04-25T03:56:40;1.10;;;1.10;;
20619;SDS011;10469;42.720;23.252;2023-04-25T03:59:06;2.60;;;2.22;;
20619;SDS011;10469;42.720;23.252;2023-04-25T04:01:32;0.70;;;0.70;;
20619;SDS011;10469;42.720;23.252;2023-04-25T04:03:58;1.33;;;1.33;;
20619;SDS011;10469;42.720;23.252;2023-04-25T04:06:23;0.80;;;0.80;;
20619;SDS011;10469;42.720;23.252;2023-04-25T04:08:49;2.38;;;2.08;;
20619;SDS011;10469;42.720;23.252;2023-04-25T04:11:15;2.72;;;1.08;;
20619;SDS011;10469;42.720;23.252;2023-04-25T04:13:40;0.57;;;0.57;;
20619;SDS011;10469;42.720;23.252;2023-04-25T04:16:06;11.63;;;8.38;;
20619;SDS011;10469;42.720;23.252;2023-04-25T04:18:31;11.35;;;8.02;;
20619;SDS011;10469;42.720;23.252;2023-04-25T04:20:58;9.82;;;7.50;;
20619;SDS011;10469;42.720;23.252;2023-04-25T04:23:24;9.98;;;8.15;;
20619;SDS011;10469;42.720;23.252;2023-04-25T04:25:52;12.07;;;8.27;;
20619;SDS011;10469;42.720;23.252;2023-04-25T04:28:18;10.32;;;8.15;;
20619;SDS011;10469;42.720;23.252;2023-04-25T04:30:43;11.00;;;8.82;;
20619;SDS011;10469;42.720;23.252;2023-04-25T04:33:12;13.90;;;8.75;;
20619;SDS011;10469;42.720;23.252;2023-04-25T04:35:37;16.98;;;9.52;;
20619;SDS011;10469;42.720;23.252;2023-04-25T04:38:03;15.40;;;9.55;;
20619;SDS011;10469;42.720;23.252;2023-04-25T04:40:29;10.75;;;8.43;;
20619;SDS011;10469;42.720;23.252;2023-04-25T04:42:56;11.15;;;8.98;;
20619;SDS011;10469;42.720;23.252;2023-04-25T04:45:22;11.45;;;8.77;;
20619;SDS011;10469;42.720;23.252;2023-04-25T04:47:48;13.13;;;8.43;;
20619;SDS011;10469;42.720;23.252;2023-04-25T04:50:14;11.32;;;7.93;;
20619;SDS011;10469;42.720;23.252;2023-04-25T04:52:41;11.43;;;8.27;;
20619;SDS011;10469;42.720;23.252;2023-04-25T04:55:07;8.48;;;7.05;;
20619;SDS011;10469;42.720;23.252;2023-04-25T04:57:33;8.82;;;6.63;;
20619;SDS011;10469;42.720;23.252;2023-04-25T04:59:59;11.15;;;8.20;;
20619;SDS011;10469;42.720;23.252;2023-04-25T05:02:25;8.57;;;6.95;;
20619;SDS011;10469;42.720;23.252;2023-04-25T05:04:51;10.73;;;7.15;;
20619;SDS011;10469;42.720;23.252;2023-04-25T05:07:17;9.48;;;7.32;;
20619;SDS011;10469;42.720;23.252;2023-04-25T05:09:43;11.10;;;7.80;;
20619;SDS011;10469;42.720;23.252;2023-04-25T05:12:09;11.63;;;8.75;;
20619;SDS011;10469;42.720;23.252;2023-04-25T05:14:35;12.23;;;8.98;;
20619;SDS011;10469;42.720;23.252;2023-04-25T05:17:00;14.27;;;8.45;;
20619;SDS011;10469;42.720;23.252;2023-04-25T05:19:26;12.82;;;9.15;;
20619;SDS011;10469;42.720;23.252;2023-04-25T05:21:52;13.70;;;8.77;;
20619;SDS011;10469;42.720;23.252;2023-04-25T05:24:18;15.45;;;8.82;;
20619;SDS011;10469;42.720;23.252;2023-04-25T05:26:43;15.07;;;8.52;;
20619;SDS011;10469;42.720;23.252;2023-04-25T05:29:09;11.05;;;7.68;;
20619;SDS011;10469;42.720;23.252;2023-04-25T05:31:35;9.18;;;6.80;;
20619;SDS011;10469;42.720;23.252;2023-04-25T05:34:01;10.40;;;6.50;;
20619;SDS011;10469;42.720;23.252;2023-04-25T05:36:27;9.30;;;6.85;;
20619;SDS011;10469;42.720;23.252;2023-04-25T05:38:53;14.30;;;6.78;;
20619;SDS011;10469;42.720;23.252;2023-04-25T05:41:18;12.23;;;7.00;;
20619;SDS011;10469;42.720;23.252;2023-04-25T05:43:45;12.60;;;7.10;;
20619;SDS011;10469;42.720;23.252;2023-04-25T05:46:12;13.43;;;7.93;;
20619;SDS011;10469;42.720;23.252;2023-04-25T05:48:38;13.90;;;7.75;;
20619;SDS011;10469;42.720;23.252;2023-04-25T05:51:04;19.70;;;13.93;;
20619;SDS011;10469;42.720;23.252;2023-04-25T05:53:29;20.27;;;8.07;;
20619;SDS011;10469;42.720;23.252;2023-04-25T05:55:55;15.80;;;8.05;;
20619;SDS011;10469;42.720;23.252;2023-04-25T05:58:20;18.60;;;9.90;;
20619;SDS011;10469;42.720;23.252;2023-04-25T06:00:46;18.20;;;9.68;;
20619;SDS011;10469;42.720;23.252;2023-04-25T06:03:12;16.70;;;9.25;;
20619;SDS011;10469;42.720;23.252;2023-04-25T06:05:40;17.58;;;9.05;;
20619;SDS011;10469;42.720;23.252;2023-04-25T06:08:07;23.80;;;8.80;;
20619;SDS011;10469;42.720;23.252;2023-04-25T06:10:33;16.48;;;8.68;;
20619;SDS011;10469;42.720;23.252;2023-04-25T06:12:59;11.93;;;7.65;;
20619;SDS011;10469;42.720;23.252;2023-04-25T06:15:24;12.07;;;8.68;;
20619;SDS011;10469;42.720;23.252;2023-04-25T06:17:50;18.73;;;9.57;;
20619;SDS011;10469;42.720;23.252;2023-04-25T06:20:15;17.30;;;9.00;;
20619;SDS011;10469;42.720;23.252;2023-04-25T06:22:41;21.40;;;8.23;;
20619;SDS011;10469;42.720;23.252;2023-04-25T06:25:06;13.35;;;8.55;;
20619;SDS011;10469;42.720;23.252;2023-04-25T06:27:33;17.92;;;9.90;;
20619;SDS011;10469;42.720;23.252;2023-04-25T06:29:59;16.30;;;9.13;;
20619;SDS011;10469;42.720;23.252;2023-04-25T06:32:24;13.75;;;8.73;;
20619;SDS011;10469;42.720;23.252;2023-04-25T06:34:51;15.18;;;8.15;;
20619;SDS011;10469;42.720;23.252;2023-04-25T06:37:16;17.42;;;8.23;;
20619;SDS011;10469;42.720;23.252;2023-04-25T06:39:42;16.70;;;8.55;;
20619;SDS011;10469;42.720;23.252;2023-04-25T06:42:07;11.98;;;7.32;;
20619;SDS011;10469;42.720;23.252;2023-04-25T06:44:33;11.90;;;7.97;;
20619;SDS011;10469;42.720;23.252;2023-04-25T06:46:58;11.15;;;7.70;;
20619;SDS011;10469;42.720;23.252;2023-04-25T06:49:24;9.45;;;6.90;;
20619;SDS011;10469;42.720;23.252;2023-04-25T06:51:50;15.35;;;7.05;;
20619;SDS011;10469;42.720;23.252;2023-04-25T06:54:15;11.48;;;7.03;;
20619;SDS011;10469;42.720;23.252;2023-04-25T06:56:41;15.75;;;7.00;;
20619;SDS011;10469;42.720;23.252;2023-04-25T06:59:06;14.95;;;8.82;;
20619;SDS011;10469;42.720;23.252;2023-04-25T07:01:32;16.08;;;9.23;;
20619;SDS011;10469;42.720;23.252;2023-04-25T07:03:57;15.35;;;9.88;;
20619;SDS011;10469;42.720;23.252;2023-04-25T07:06:23;15.05;;;10.90;;
20619;SDS011;10469;42.720;23.252;2023-04-25T07:08:49;17.23;;;10.30;;
20619;SDS011;10469;42.720;23.252;2023-04-25T07:11:14;17.70;;;11.32;;
20619;SDS011;10469;42.720;23.252;2023-04-25T07:13:39;14.32;;;10.95;;
20619;SDS011;10469;42.720;23.252;2023-04-25T07:16:05;18.73;;;11.73;;
20619;SDS011;10469;42.720;23.252;2023-04-25T07:18:31;19.73;;;12.63;;
20619;SDS011;10469;42.720;23.252;2023-04-25T07:20:56;17.70;;;12.32;;
20619;SDS011;10469;42.720;23.252;2023-04-25T07:23:22;20.63;;;11.50;;
20619;SDS011;10469;42.720;23.252;2023-04-25T07:25:47;18.27;;;11.93;;
20619;SDS011;10469;42.720;23.252;2023-04-25T07:28:20;17.83;;;12.23;;
20619;SDS011;10469;42.720;23.252;2023-04-25T07:33:11;20.38;;;10.52;;
20619;SDS011;10469;42.720;23.252;2023-04-25T07:35:37;16.27;;;11.70;;
20619;SDS011;10469;42.720;23.252;2023-04-25T07:38:02;14.02;;;9.88;;
20619;SDS011;10469;42.720;23.252;2023-04-25T07:40:28;14.52;;;11.27;;
20619;SDS011;10469;42.720;23.252;2023-04-25T07:42:54;22.13;;;10.63;;
20619;SDS011;10469;42.720;23.252;2023-04-25T07:45:19;18.77;;;10.48;;
20619;SDS011;10469;42.720;23.252;2023-04-25T07:47:45;23.50;;;11.57;;
20619;SDS011;10469;42.720;23.252;2023-04-25T07:50:10;23.48;;;9.43;;
20619;SDS011;10469;42.720;23.252;2023-04-25T07:52:36;15.35;;;9.60;;
20619;SDS011;10469;42.720;23.252;2023-04-25T07:55:02;12.77;;;8.55;;
20619;SDS011;10469;42.720;23.252;2023-04-25T07:57:35;17.35;;;12.57;;
20619;SDS011;10469;42.720;23.252;2023-04-25T08:00:02;13.82;;;10.25;;
20619;SDS011;10469;42.720;23.252;2023-04-25T08:02:28;19.20;;;10.38;;
20619;SDS011;10469;42.720;23.252;2023-04-25T08:04:54;17.98;;;9.48;;
20619;SDS011;10469;42.720;23.252;2023-04-25T08:07:20;19.42;;;10.55;;
20619;SDS011;10469;42.720;23.252;2023-04-25T08:09:45;14.90;;;9.43;;
20619;SDS011;10469;42.720;23.252;2023-04-25T08:12:11;12.88;;;9.38;;
20619;SDS011;10469;42.720;23.252;2023-04-25T08:14:36;19.60;;;9.30;;
20619;SDS011;10469;42.720;23.252;2023-04-25T08:17:04;20.45;;;12.90;;
20619;SDS011;10469;42.720;23.252;2023-04-25T08:19:30;21.02;;;10.75;;
20619;SDS011;10469;42.720;23.252;2023-04-25T08:21:56;16.45;;;9.57;;
20619;SDS011;10469;42.720;23.252;2023-04-25T08:24:22;19.02;;;10.15;;
20619;SDS011;10469;42.720;23.252;2023-04-25T08:26:48;20.30;;;9.57;;
20619;SDS011;10469;42.720;23.252;2023-04-25T08:29:13;20.08;;;9.63;;
20619;SDS011;10469;42.720;23.252;2023-04-25T08:31:39;18.50;;;8.85;;
20619;SDS011;10469;42.720;23.252;2023-04-25T08:34:05;10.10;;;6.38;;
20619;SDS011;10469;42.720;23.252;2023-04-25T08:36:30;0.85;;;0.85;;
20619;SDS011;10469;42.720;23.252;2023-04-25T08:38:56;0.50;;;0.50;;
20619;SDS011;10469;42.720;23.252;2023-04-25T08:41:23;0.75;;;0.75;;
20619;SDS011;10469;42.720;23.252;2023-04-25T08:43:49;0.73;;;0.73;;
20619;SDS011;10469;42.720;23.252;2023-04-25T08:46:17;5.35;;;0.85;;
20619;SDS011;10469;42.720;23.252;2023-04-25T08:48:44;1.40;;;1.40;;
20619;SDS011;10469;42.720;23.252;2023-04-25T08:51:15;4.80;;;1.05;;
20619;SDS011;10469;42.720;23.252;2023-04-25T08:53:46;0.50;;;0.50;;
20619;SDS011;10469;42.720;23.252;2023-04-25T08:56:15;5.47;;;2.22;;
20619;SDS011;10469;42.720;23.252;2023-04-25T08:58:50;1.05;;;1.05;;
20619;SDS011;10469;42.720;23.252;2023-04-25T09:01:16;0.60;;;0.60;;
20619;SDS011;10469;42.720;23.252;2023-04-25T09:03:43;4.70;;;1.90;;
20619;SDS011;10469;42.720;23.252;2023-04-25T09:06:13;1.00;;;1.00;;
20619;SDS011;10469;42.720;23.252;2023-04-25T09:08:39;2.38;;;1.40;;
20619;SDS011;10469;42.720;23.252;2023-04-25T09:11:06;0.73;;;0.73;;
20619;SDS011;10469;42.720;23.252;2023-04-25T09:13:31;1.02;;;0.90;;
20619;SDS011;10469;42.720;23.252;2023-04-25T09:15:57;18.13;;;6.93;;
20619;SDS011;10469;42.720;23.252;2023-04-25T09:18:30;11.70;;;6.80;;
20619;SDS011;10469;42.720;23.252;2023-04-25T09:20:58;11.70;;;6.57;;
20619;SDS011;10469;42.720;23.252;2023-04-25T09:23:30;14.10;;;7.32;;
20619;SDS011;10469;42.720;23.252;2023-04-25T09:26:05;7.05;;;5.10;;
20619;SDS011;10469;42.720;23.252;2023-04-25T09:28:32;7.93;;;5.03;;
20619;SDS011;10469;42.720;23.252;2023-04-25T09:31:00;7.15;;;4.32;;
20619;SDS011;10469;42.720;23.252;2023-04-25T09:33:29;3.83;;;3.00;;
20619;SDS011;10469;42.720;23.252;2023-04-25T09:36:04;8.80;;;4.43;;
20619;SDS011;10469;42.720;23.252;2023-04-25T09:38:42;6.38;;;3.83;;
20619;SDS011;10469;42.720;23.252;2023-04-25T09:41:09;5.00;;;3.83;;
20619;SDS011;10469;42.720;23.252;2023-04-25T09:43:36;4.88;;;3.58;;
20619;SDS011;10469;42.720;23.252;2023-04-25T09:46:02;4.72;;;2.97;;
20619;SDS011;10469;42.720;23.252;2023-04-25T09:48:29;8.15;;;2.88;;
20619;SDS011;10469;42.720;23.252;2023-04-25T09:51:10;3.78;;;2.67;;
20619;SDS011;10469;42.720;23.252;2023-04-25T09:53:39;5.13;;;2.60;;
20619;SDS011;10469;42.720;23.252;2023-04-25T09:56:08;11.75;;;3.38;;
20619;SDS011;10469;42.720;23.252;2023-04-25T09:58:35;5.50;;;2.17;;
20619;SDS011;10469;42.720;23.252;2023-04-25T10:01:02;8.52;;;2.33;;
20619;SDS011;10469;42.720;23.252;2023-04-25T10:03:33;3.38;;;2.50;;
20619;SDS011;10469;42.720;23.252;2023-04-25T10:06:01;3.58;;;1.83;;
20619;SDS011;10469;42.720;23.252;2023-04-25T10:08:32;2.00;;;1.60;;
20619;SDS011;10469;42.720;23.252;2023-04-25T10:11:05;4.40;;;1.80;;
20619;SDS011;10469;42.720;23.252;2023-04-25T10:13:32;7.68;;;2.50;;
20619;SDS011;10469;42.720;23.252;2023-04-25T10:15:59;9.55;;;2.90;;
20619;SDS011;10469;42.720;23.252;2023-04-25T10:18:26;3.10;;;2.30;;
20619;SDS011;10469;42.720;23.252;2023-04-25T10:20:55;6.38;;;1.80;;
20619;SDS011;10469;42.720;23.252;2023-04-25T10:23:22;7.50;;;2.25;;
20619;SDS011;10469;42.720;23.252;2023-04-25T10:25:49;6.88;;;2.42;;
20619;SDS011;10469;42.720;23.252;2023-04-25T10:28:16;4.78;;;1.48;;
20619;SDS011;10469;42.720;23.252;2023-04-25T10:31:01;6.00;;;1.73;;
20619;SDS011;10469;42.720;23.252;2023-04-25T10:33:38;11.20;;;1.80;;
20619;SDS011;10469;42.720;23.252;2023-04-25T10:36:12;2.45;;;1.40;;
20619;SDS011;10469;42.720;23.252;2023-04-25T10:38:40;3.20;;;1.60;;
20619;SDS011;10469;42.720;23.252;2023-04-25T10:41:08;1.90;;;1.52;;
20619;SDS011;10469;42.720;23.252;2023-04-25T10:46:26;2.75;;;1.10;;
20619;SDS011;10469;42.720;23.252;2023-04-25T10:48:57;3.58;;;1.25;;
20619;SDS011;10469;42.720;23.252;2023-04-25T10:51:25;5.18;;;1.25;;
20619;SDS011;10469;42.720;23.252;2023-04-25T10:56:21;6.40;;;1.52;;
20619;SDS011;10469;42.720;23.252;2023-04-25T10:58:47;6.65;;;1.60;;
20619;SDS011;10469;42.720;23.252;2023-04-25T11:01:15;2.33;;;1.10;;
20619;SDS011;10469;42.720;23.252;2023-04-25T11:03:44;4.75;;;1.10;;
20619;SDS011;10469;42.720;23.252;2023-04-25T11:06:15;1.42;;;1.00;;
20619;SDS011;10469;42.720;23.252;2023-04-25T11:08:54;4.20;;;1.27;;
20619;SDS011;10469;42.720;23.252;2023-04-25T11:11:20;4.85;;;1.55;;
20619;SDS011;10469;42.720;23.252;2023-04-25T11:13:49;2.45;;;1.55;;
20619;SDS011;10469;42.720;23.252;2023-04-25T11:16:15;6.47;;;1.25;;
20619;SDS011;10469;42.720;23.252;2023-04-25T11:18:42;0.88;;;0.80;;
20619;SDS011;10469;42.720;23.252;2023-04-25T11:21:09;6.15;;;1.45;;
20619;SDS011;10469;42.720;23.252;2023-04-25T11:23:35;1.17;;;1.10;;
20619;SDS011;10469;42.720;23.252;2023-04-25T11:26:01;5.25;;;1.30;;
20619;SDS011;10469;42.720;23.252;2023-04-25T11:28:28;6.65;;;1.20;;
20619;SDS011;10469;42.720;23.252;2023-04-25T11:30:53;8.32;;;1.20;;
20619;SDS011;10469;42.720;23.252;2023-04-25T11:33:22;2.78;;;1.40;;
20619;SDS011;10469;42.720;23.252;2023-04-25T11:35:49;4.45;;;2.80;;
20619;SDS011;10469;42.720;23.252;2023-04-25T11:38:14;2.10;;;1.90;;
20619;SDS011;10469;42.720;23.252;2023-04-25T11:40:40;2.60;;;1.80;;
20619;SDS011;10469;42.720;23.252;2023-04-25T11:43:05;1.30;;;1.10;;
20619;SDS011;10469;42.720;23.252;2023-04-25T11:45:32;6.18;;;1.42;;
20619;SDS011;10469;42.720;23.252;2023-04-25T11:47:57;1.75;;;1.20;;
20619;SDS011;10469;42.720;23.252;2023-04-25T11:50:23;4.97;;;1.38;;
20619;SDS011;10469;42.720;23.252;2023-04-25T11:52:49;1.45;;;1.10;;
20619;SDS011;10469;42.720;23.252;2023-04-25T11:55:16;1.17;;;1.05;;
20619;SDS011;10469;42.720;23.252;2023-04-25T11:57:43;1.05;;;1.05;;
20619;SDS011;10469;42.720;23.252;2023-04-25T12:00:11;1.50;;;0.95;;
20619;SDS011;10469;42.720;23.252;2023-04-25T12:02:44;1.52;;;1.15;;
20619;SDS011;10469;42.720;23.252;2023-04-25T12:05:23;1.52;;;1.20;;
20619;SDS011;10469;42.720;23.252;2023-04-25T12:07:50;2.20;;;1.23;;
20619;SDS011;10469;42.720;23.252;2023-04-25T12:10:16;1.05;;;1.00;;
20619;SDS011;10469;42.720;23.252;2023-04-25T12:12:46;1.00;;;1.00;;
20619;SDS011;10469;42.720;23.252;2023-04-25T12:15:13;1.42;;;1.20;;
20619;SDS011;10469;42.720;23.252;2023-04-25T12:17:47;3.03;;;1.20;;
20619;SDS011;10469;42.720;23.252;2023-04-25T12:20:15;1.67;;;1.25;;
20619;SDS011;10469;42.720;23.252;2023-04-25T12:22:42;3.90;;;1.38;;
20619;SDS011;10469;42.720;23.252;2023-04-25T12:28:17;4.28;;;1.83;;
20619;SDS011;10469;42.720;23.252;2023-04-25T12:30:54;1.90;;;1.40;;
20619;SDS011;10469;42.720;23.252;2023-04-25T12:33:23;3.22;;;1.00;;
20619;SDS011;10469;42.720;23.252;2023-04-25T12:35:49;1.23;;;1.13;;
20619;SDS011;10469;42.720;23.252;2023-04-25T12:38:22;1.17;;;1.05;;
20619;SDS011;10469;42.720;23.252;2023-04-25T12:40:53;2.95;;;1.98;;
20619;SDS011;10469;42.720;23.252;2023-04-25T12:43:19;4.53;;;1.98;;
20619;SDS011;10469;42.720;23.252;2023-04-25T12:45:49;3.83;;;1.65;;
20619;SDS011;10469;42.720;23.252;2023-04-25T12:48:16;2.30;;;2.05;;
20619;SDS011;10469;42.720;23.252;2023-04-25T12:50:42;2.65;;;2.00;;
20619;SDS011;10469;42.720;23.252;2023-04-25T12:53:08;3.20;;;2.90;;
20619;SDS011;10469;42.720;23.252;2023-04-25T12:55:34;3.33;;;2.90;;
20619;SDS011;10469;42.720;23.252;2023-04-25T12:57:59;6.68;;;3.55;;
20619;SDS011;10469;42.720;23.252;2023-04-25T13:00:25;4.10;;;2.13;;
20619;SDS011;10469;42.720;23.252;2023-04-25T13:02:51;2.33;;;1.80;;
20619;SDS011;10469;42.720;23.252;2023-04-25T13:05:17;4.35;;;1.60;;
20619;SDS011;10469;42.720;23.252;2023-04-25T13:07:42;2.00;;;1.88;;
20619;SDS011;10469;42.720;23.252;2023-04-25T13:10:08;2.30;;;1.63;;
20619;SDS011;10469;42.720;23.252;2023-04-25T13:12:33;5.55;;;1.77;;
20619;SDS011;10469;42.720;23.252;2023-04-25T13:14:59;3.20;;;1.90;;
20619;SDS011;10469;42.720;23.252;2023-04-25T13:17:24;2.28;;;1.90;;
20619;SDS011;10469;42.720;23.252;2023-04-25T13:19:50;2.83;;;2.20;;
20619;SDS011;10469;42.720;23.252;2023-04-25T13:22:15;3.15;;;2.00;;
20619;SDS011;10469;42.720;23.252;2023-04-25T13:24:42;7.35;;;4.28;;
20619;SDS011;10469;42.720;23.252;2023-04-25T13:27:08;2.47;;;2.00;;
20619;SDS011;10469;42.720;23.252;2023-04-25T13:29:33;2.63;;;1.90;;
20619;SDS011;10469;42.720;23.252;2023-04-25T13:32:00;3.47;;;2.00;;
20619;SDS011;10469;42.720;23.252;2023-04-25T13:34:29;5.65;;;2.33;;
20619;SDS011;10469;42.720;23.252;2023-04-25T13:36:55;4.35;;;2.22;;
20619;SDS011;10469;42.720;23.252;2023-04-25T13:39:21;4.20;;;2.30;;
20619;SDS011;10469;42.720;23.252;2023-04-25T13:41:46;4.53;;;2.45;;
20619;SDS011;10469;42.720;23.252;2023-04-25T13:44:12;2.90;;;2.20;;
20619;SDS011;10469;42.720;23.252;2023-04-25T13:46:37;3.83;;;2.45;;
20619;SDS011;10469;42.720;23.252;2023-04-25T13:49:03;3.65;;;2.17;;
20619;SDS011;10469;42.720;23.252;2023-04-25T13:51:29;3.85;;;2.25;;
20619;SDS011;10469;42.720;23.252;2023-04-25T13:53:55;4.03;;;2.03;;
20619;SDS011;10469;42.720;23.252;2023-04-25T13:56:21;3.17;;;2.33;;
20619;SDS011;10469;42.720;23.252;2023-04-25T13:58:48;4.95;;;2.65;;
20619;SDS011;10469;42.720;23.252;2023-04-25T14:01:14;4.18;;;3.17;;
20619;SDS011;10469;42.720;23.252;2023-04-25T14:03:39;3.97;;;2.80;;
20619;SDS011;10469;42.720;23.252;2023-04-25T14:06:06;2.95;;;2.60;;
20619;SDS011;10469;42.720;23.252;2023-04-25T14:08:33;4.93;;;2.50;;
20619;SDS011;10469;42.720;23.252;2023-04-25T14:10:59;2.55;;;2.00;;
20619;SDS011;10469;42.720;23.252;2023-04-25T14:13:24;1.77;;;1.65;;
20619;SDS011;10469;42.720;23.252;2023-04-25T14:15:50;2.38;;;2.15;;
20619;SDS011;10469;42.720;23.252;2023-04-25T14:18:15;1.60;;;1.50;;
20619;SDS011;10469;42.720;23.252;2023-04-25T14:20:42;1.67;;;1.58;;
20619;SDS011;10469;42.720;23.252;2023-04-25T14:23:07;2.25;;;1.73;;
20619;SDS011;10469;42.720;23.252;2023-04-25T14:25:33;2.58;;;2.28;;
20619;SDS011;10469;42.720;23.252;2023-04-25T14:27:58;2.45;;;2.10;;
20619;SDS011;10469;42.720;23.252;2023-04-25T14:30:24;2.60;;;1.83;;
20619;SDS011;10469;42.720;23.252;2023-04-25T14:32:49;2.97;;;1.80;;
20619;SDS011;10469;42.720;23.252;2023-04-25T14:35:15;2.33;;;2.00;;
20619;SDS011;10469;42.720;23.252;2023-04-25T14:37:40;2.50;;;2.30;;